Time;durP1;ratioP1;P1;durP2;ratioP2;P2;SDS_P1;SDS_P2;PMS_P1;PMS_P2;Temp;Humidity;BMP_temperature;BMP_pressure;BME280_temperature;BME280_humidity;BME280_pressure;Samples;Min_cycle;Max_cycle;Signal;HPM_P1;HPM_P2
2021/01/02 00:00:07;;;;;;;6.65;3.47;;;;;;;20.02;44.54;156392.13;1734670;83;21184;-73
2021/01/02 00:02:50;;;;;;;7.72;4.70;;;;;;;19.98;44.74;156380.19;1734757;83;21710;-73
2021/01/02 00:05:24;;;;;;;8.78;4.05;;;;;;;20.06;44.76;156404.02;1734549;82;21195;-72
2021/01/02 00:08:20;;;;;;;7.85;3.92;;;;;;;20.26;44.71;156455.53;1711149;82;21204;-74
2021/01/02 00:11:03;;;;;;;9.13;3.58;;;;;;;20.28;44.67;156460.83;1708592;83;21329;-72
2021/01/02 00:14:12;;;;;;;7.78;4.03;;;;;;;20.28;44.74;156460.83;1703735;83;21382;-73
2021/01/02 00:16:53;;;;;;;10.63;4.37;;;;;;;20.25;44.73;156454.23;1734384;83;21259;-74
2021/01/02 00:19:46;;;;;;;9.75;4.87;;;;;;;20.38;44.70;156488.61;1734528;83;21260;-72
2021/01/02 00:22:31;;;;;;;8.20;4.55;;;;;;;20.39;44.64;156489.91;1717315;82;21371;-73
2021/01/02 00:25:06;;;;;;;8.05;4.03;;;;;;;20.39;44.62;156489.91;1727887;82;21428;-74
2021/01/02 00:27:58;;;;;;;9.35;4.60;;;;;;;20.19;44.59;156438.39;1715213;82;21346;-74
2021/01/02 00:31:06;;;;;;;8.50;4.35;;;;;;;19.76;44.39;156322.00;1705230;84;21234;-72
2021/01/02 00:34:24;;;;;;;5.97;3.45;;;;;;;19.80;44.12;156333.89;1714392;83;21801;-72
2021/01/02 00:37:06;;;;;;;7.22;3.77;;;;;;;19.99;44.07;156385.48;1734428;83;21715;-73
2021/01/02 00:39:52;;;;;;;8.53;4.17;;;;;;;19.60;44.00;156279.75;1732126;83;21219;-73
2021/01/02 00:42:24;;;;;;;6.67;3.90;;;;;;;20.02;43.93;156393.44;1734709;83;21302;-73
2021/01/02 00:45:01;;;;;;;7.30;3.30;;;;;;;19.95;43.84;156373.55;1733774;83;21233;-73
2021/01/02 00:47:36;;;;;;;6.60;3.33;;;;;;;19.93;43.58;156366.95;1698974;84;21404;-74
2021/01/02 00:50:14;;;;;;;6.47;3.20;;;;;;;20.08;43.55;156409.27;1704217;84;21344;-73
2021/01/02 00:53:22;;;;;;;6.37;3.27;;;;;;;20.14;43.43;156423.81;1708360;82;21388;-73
2021/01/02 00:56:29;;;;;;;6.40;3.75;;;;;;;19.75;43.60;156320.69;1716615;83;21187;-74
2021/01/02 00:59:23;;;;;;;7.30;3.95;;;;;;;19.56;43.72;156270.45;1730987;81;21317;-73
2021/01/02 01:02:09;;;;;;;5.67;3.40;;;;;;;19.42;43.77;156233.50;1746434;82;21218;-74
2021/01/02 01:04:47;;;;;;;6.92;3.62;;;;;;;19.45;43.70;156241.39;1746884;82;21865;-73
2021/01/02 01:07:19;;;;;;;6.45;3.30;;;;;;;19.92;43.34;156364.31;1746738;82;21472;-73
2021/01/02 01:09:53;;;;;;;8.00;3.85;;;;;;;19.95;43.08;156373.55;1737463;81;21794;-73
2021/01/02 01:12:27;;;;;;;5.85;3.60;;;;;;;19.58;42.99;156275.75;1735671;82;21346;-73
2021/01/02 01:14:59;;;;;;;6.58;3.17;;;;;;;19.89;42.68;156357.72;1733284;82;21355;-72
2021/01/02 01:17:34;;;;;;;7.03;3.37;;;;;;;19.95;42.31;156372.25;1717904;82;21183;-72
2021/01/02 01:20:07;;;;;;;5.85;2.70;;;;;;;19.93;42.33;156368.25;1705216;83;21397;-72
2021/01/02 01:22:42;;;;;;;4.80;3.08;;;;;;;19.95;42.16;156372.25;1716212;83;21223;-72
2021/01/02 01:25:19;;;;;;;7.08;3.58;;;;;;;19.87;41.93;156352.42;1717956;82;21240;-72
2021/01/02 01:27:56;;;;;;;5.72;3.22;;;;;;;19.89;42.12;156356.36;1729558;81;21779;-72
2021/01/02 01:30:29;;;;;;;5.83;3.20;;;;;;;19.91;42.01;156361.66;1717917;82;21363;-73
2021/01/02 01:33:03;;;;;;;4.95;2.87;;;;;;;19.88;42.01;156353.72;1725981;83;21713;-72
2021/01/02 01:35:42;;;;;;;6.78;3.10;;;;;;;19.82;42.16;156339.19;1722897;82;21199;-73
2021/01/02 01:38:16;;;;;;;5.92;3.00;;;;;;;19.92;42.23;156365.61;1715408;82;21826;-72
2021/01/02 01:40:48;;;;;;;5.50;3.12;;;;;;;19.80;42.41;156333.89;1715097;82;21156;-72
2021/01/02 01:43:40;;;;;;;7.45;3.65;;;;;;;19.89;42.49;156356.36;1736863;82;21321;-72
2021/01/02 01:46:16;;;;;;;8.70;3.85;;;;;;;19.88;42.48;156355.06;1736384;82;21326;-72
2021/01/02 01:49:10;;;;;;;6.60;3.52;;;;;;;19.88;42.55;156353.72;1729595;82;21822;-72
2021/01/02 01:52:01;;;;;;;8.40;4.17;;;;;;;19.75;42.56;156319.34;1706677;82;21322;-72
2021/01/02 01:55:08;;;;;;;8.83;3.83;;;;;;;19.33;42.91;156209.69;1680892;84;21858;-72
2021/01/02 01:57:41;;;;;;;6.05;3.50;;;;;;;19.51;42.83;156255.92;1711068;84;21344;-72
2021/01/02 02:00:16;;;;;;;5.90;3.30;;;;;;;19.33;42.92;156209.69;1724321;82;21828;-72
2021/01/02 02:02:56;;;;;;;6.78;3.67;;;;;;;19.49;42.92;156251.98;1747416;82;21184;-72
2021/01/02 02:05:32;;;;;;;;;;;;;;;19.39;42.85;156225.56;1724041;82;21454;-72
2021/01/02 02:08:08;;;;;;;6.65;3.58;;;;;;;19.21;42.99;156177.98;1712058;83;20298;-73
2021/01/02 02:10:48;;;;;;;7.25;3.05;;;;;;;19.38;42.86;156221.63;1717983;82;21326;-72
2021/01/02 02:13:33;;;;;;;6.65;3.33;;;;;;;19.48;42.86;156249.33;1739370;82;21341;-72
2021/01/02 02:16:09;;;;;;;7.30;3.33;;;;;;;19.34;42.80;156211.03;1703800;84;21336;-72
2021/01/02 02:18:45;;;;;;;7.30;3.30;;;;;;;19.38;42.82;156222.91;1712697;82;21328;-73
2021/01/02 02:21:17;;;;;;;6.35;3.62;;;;;;;19.14;42.88;156158.22;1680307;85;21336;-73
2021/01/02 02:24:00;;;;;;;8.65;3.72;;;;;;;19.03;43.01;156127.77;1689992;84;21230;-72
2021/01/02 02:26:37;;;;;;;7.42;3.58;;;;;;;18.88;42.81;156089.47;1692972;84;21331;-72
2021/01/02 02:29:20;;;;;;;7.70;3.90;;;;;;;18.89;42.88;156090.78;1715195;82;21150;-73
2021/01/02 02:31:51;;;;;;;9.85;4.12;;;;;;;18.71;42.83;156043.27;1675421;85;21848;-73
2021/01/02 02:34:23;;;;;;;8.80;3.83;;;;;;;19.00;42.72;156119.81;1684232;82;21705;-72
2021/01/02 02:36:56;;;;;;;7.70;3.67;;;;;;;19.01;42.51;156122.47;1682073;85;21317;-72
2021/01/02 02:39:30;;;;;;;7.83;3.87;;;;;;;18.81;42.67;156069.66;1682210;85;21336;-72
2021/01/02 02:42:02;;;;;;;7.03;3.10;;;;;;;18.75;42.71;156055.14;1694530;82;21229;-73
2021/01/02 02:44:39;;;;;;;8.55;3.80;;;;;;;18.53;42.66;155995.70;1717131;82;21843;-72
2021/01/02 02:47:11;;;;;;;8.33;4.28;;;;;;;18.41;42.61;155964.03;1739191;82;21710;-73
2021/01/02 02:49:45;;;;;;;9.38;4.20;;;;;;;18.45;42.52;155974.61;1707149;82;21802;-73
2021/01/02 02:52:33;;;;;;;11.78;4.87;;;;;;;18.77;42.44;156059.08;1688607;82;21424;-72
2021/01/02 02:55:06;;;;;;;7.37;3.92;;;;;;;18.75;42.42;156053.84;1727999;82;21397;-76
2021/01/02 02:57:47;;;;;;;9.25;4.40;;;;;;;18.88;42.42;156089.47;1734378;83;21255;-76
2021/01/02 03:00:19;;;;;;;7.20;3.93;;;;;;;18.57;42.56;156006.28;1734874;83;21226;-76
2021/01/02 03:02:52;;;;;;;10.23;5.00;;;;;;;18.50;42.49;155987.83;1734658;83;21152;-74
2021/01/02 03:05:24;;;;;;;9.55;4.10;;;;;;;18.45;42.54;155974.61;1730540;82;21224;-76
2021/01/02 03:07:57;;;;;;;7.37;4.25;;;;;;;18.49;42.45;155985.19;1713546;83;21206;-75
2021/01/02 03:10:30;;;;;;;8.48;4.55;;;;;;;18.59;42.54;156011.58;1714220;83;21190;-75
2021/01/02 03:13:02;;;;;;;10.03;4.40;;;;;;;18.15;42.64;155896.69;1722816;82;21199;-75
2021/01/02 03:15:41;;;;;;;8.55;4.33;;;;;;;17.80;43.06;155801.67;1718202;82;21170;-75
2021/01/02 03:18:13;;;;;;;7.40;3.90;;;;;;;17.86;42.89;155818.83;1722945;82;21227;-76
2021/01/02 03:20:46;;;;;;;6.92;4.05;;;;;;;18.25;42.55;155923.12;1730951;83;21183;-75
2021/01/02 03:23:18;;;;;;;7.80;3.75;;;;;;;17.90;42.80;155829.41;1707218;82;21330;-76
2021/01/02 03:25:51;;;;;;;8.90;4.15;;;;;;;17.79;43.18;155800.38;1742457;82;21392;-75
2021/01/02 03:28:23;;;;;;;9.48;4.42;;;;;;;18.00;42.89;155854.44;1742392;82;21362;-75
2021/01/02 03:30:55;;;;;;;8.98;4.22;;;;;;;18.37;42.66;155953.50;1742684;81;21473;-75
2021/01/02 03:33:28;;;;;;;8.38;4.35;;;;;;;18.35;42.47;155948.22;1739784;82;21345;-75
2021/01/02 03:36:02;;;;;;;9.65;4.85;;;;;;;18.17;42.70;155901.97;1730771;82;21317;-76
2021/01/02 03:38:34;;;;;;;7.87;3.37;;;;;;;18.32;42.59;155941.63;1732993;83;21324;-76
2021/01/02 03:41:07;;;;;;;9.68;3.98;;;;;;;18.43;42.75;155969.31;1734050;82;21344;-75
2021/01/02 03:43:39;;;;;;;7.42;4.35;;;;;;;18.43;42.59;155969.31;1733144;82;21340;-76
2021/01/02 03:46:11;;;;;;;10.18;5.28;;;;;;;18.40;42.60;155961.44;1725983;82;21358;-77
2021/01/02 03:48:43;;;;;;;10.23;4.53;;;;;;;18.50;42.57;155989.13;1723078;82;21847;-76
2021/01/02 03:51:27;;;;;;;11.95;4.72;;;;;;;18.50;42.52;155987.83;1705825;82;21304;-77
2021/01/02 03:53:59;;;;;;;6.70;3.77;;;;;;;18.50;42.66;155987.83;1707625;83;21237;-76
2021/01/02 03:56:32;;;;;;;9.90;4.65;;;;;;;18.49;42.59;155985.19;1722438;82;21661;-77
2021/01/02 03:59:04;;;;;;;8.23;3.70;;;;;;;18.49;42.53;155985.19;1723020;82;21408;-74
2021/01/02 04:01:36;;;;;;;7.22;4.05;;;;;;;18.54;42.63;155999.70;1716465;82;21371;-74
2021/01/02 04:04:09;;;;;;;7.37;4.33;;;;;;;18.61;42.64;156018.16;1717970;83;21221;-74
2021/01/02 04:06:41;;;;;;;9.85;5.62;;;;;;;18.57;42.71;156007.64;1723141;82;21938;-75
2021/01/02 04:09:13;;;;;;;9.98;5.83;;;;;;;18.62;42.74;156020.81;1712925;83;21254;-75
2021/01/02 04:11:46;;;;;;;9.03;5.40;;;;;;;18.54;42.81;155998.36;1721874;83;21309;-75
2021/01/02 04:14:18;;;;;;;9.23;4.60;;;;;;;18.40;42.86;155961.44;1719382;83;21642;-75
2021/01/02 04:16:51;;;;;;;9.03;4.87;;;;;;;18.42;42.88;155968.03;1715219;83;21406;-74
2021/01/02 04:19:23;;;;;;;7.97;4.50;;;;;;;18.53;42.82;155997.06;1717066;82;21364;-76
2021/01/02 04:21:55;;;;;;;7.72;4.10;;;;;;;18.30;42.89;155936.34;1721693;83;21253;-74
2021/01/02 04:24:28;;;;;;;9.60;4.53;;;;;;;18.38;42.84;155956.16;1710155;82;21202;-74
2021/01/02 04:27:02;;;;;;;9.18;4.60;;;;;;;18.36;42.91;155950.86;1721186;83;21356;-74
2021/01/02 04:29:34;;;;;;;8.75;4.17;;;;;;;18.39;42.96;155958.78;1722060;83;21910;-75
2021/01/02 04:32:07;;;;;;;6.92;4.00;;;;;;;18.40;43.02;155961.44;1723111;82;21311;-74
2021/01/02 04:34:39;;;;;;;7.17;3.98;;;;;;;18.35;43.15;155948.22;1722820;83;21368;-74
2021/01/02 04:37:12;;;;;;;6.58;3.60;;;;;;;18.44;43.14;155973.31;1720073;83;22442;-74
2021/01/02 04:39:44;;;;;;;8.15;4.30;;;;;;;18.61;42.89;156018.16;1719704;83;21395;-74
2021/01/02 04:42:16;;;;;;;8.35;4.58;;;;;;;18.61;42.85;156016.88;1720617;82;21197;-74
2021/01/02 04:44:52;;;;;;;8.73;4.35;;;;;;;18.53;42.88;155995.70;1725017;82;21424;-74
2021/01/02 04:47:26;;;;;;;8.15;4.55;;;;;;;18.43;43.12;155969.31;1724072;82;21935;-74
2021/01/02 04:50:00;;;;;;;6.47;3.80;;;;;;;18.42;43.06;155966.67;1692670;83;21311;-74
2021/01/02 04:52:33;;;;;;;7.10;3.77;;;;;;;18.41;43.09;155965.37;1723584;83;21186;-74
2021/01/02 04:55:07;;;;;;;6.12;3.22;;;;;;;18.39;43.32;155960.08;1722046;83;21836;-74
2021/01/02 04:57:42;;;;;;;7.78;3.67;;;;;;;18.43;43.26;155970.66;1725745;83;21327;-74
2021/01/02 05:00:14;;;;;;;8.93;4.45;;;;;;;18.29;43.41;155932.34;1719998;82;21730;-74
2021/01/02 05:02:46;;;;;;;8.15;4.50;;;;;;;18.13;43.40;155890.09;1699447;82;21815;-74
2021/01/02 05:05:19;;;;;;;7.92;3.98;;;;;;;17.84;43.60;155812.25;1716076;83;21236;-74
2021/01/02 05:07:52;;;;;;;5.95;3.72;;;;;;;17.71;43.86;155779.23;1717460;83;21197;-74
2021/01/02 05:10:26;;;;;;;8.13;4.05;;;;;;;17.64;43.94;155760.80;1706262;82;21704;-75
2021/01/02 05:13:17;;;;;;;8.68;4.25;;;;;;;18.09;43.57;155879.53;1715413;82;21325;-74
2021/01/02 05:15:45;;;;;;;8.05;3.83;;;;;;;18.12;43.42;155888.75;1725569;83;21815;-74
2021/01/02 05:18:18;;;;;;;7.72;4.20;;;;;;;18.11;43.44;155883.52;1726950;83;21366;-74
2021/01/02 05:20:50;;;;;;;6.10;3.60;;;;;;;18.01;43.48;155857.08;1722758;83;21339;-74
2021/01/02 05:23:23;;;;;;;7.47;4.05;;;;;;;18.05;43.46;155869.00;1724293;82;21423;-74
2021/01/02 05:25:57;;;;;;;6.60;3.98;;;;;;;18.02;43.40;155859.72;1694471;84;21193;-76
2021/01/02 05:28:30;;;;;;;8.88;4.50;;;;;;;17.80;43.49;155801.67;1674118;83;21379;-73
2021/01/02 05:31:07;;;;;;;8.60;5.25;;;;;;;17.84;43.54;155812.25;1718375;83;21308;-77
2021/01/02 05:33:39;;;;;;;8.70;4.40;;;;;;;17.32;44.06;155675.05;1718018;83;21184;-75
2021/01/02 05:36:11;;;;;;;9.93;5.10;;;;;;;17.33;44.06;155679.03;1703515;83;21226;-75
2021/01/02 05:38:48;;;;;;;9.33;4.17;;;;;;;17.48;44.00;155717.27;1655432;85;21193;-73
2021/01/02 05:41:20;;;;;;;7.42;4.03;;;;;;;17.46;44.07;155713.33;1706206;82;21314;-74
2021/01/02 05:43:53;;;;;;;8.03;3.85;;;;;;;17.42;44.07;155701.41;1749273;82;21265;-77
2021/01/02 05:46:25;;;;;;;8.35;4.80;;;;;;;17.20;44.26;155644.69;1729797;82;21375;-76
2021/01/02 05:48:57;;;;;;;7.92;4.65;;;;;;;16.89;44.42;155560.33;1723785;83;21264;-77
2021/01/02 05:51:30;;;;;;;8.28;4.50;;;;;;;16.96;44.57;155580.06;1723675;82;21194;-77
2021/01/02 05:54:09;;;;;;;8.63;5.08;;;;;;;16.91;44.61;155565.56;1715333;83;21218;-76
2021/01/02 05:56:47;;;;;;;8.23;4.80;;;;;;;16.98;44.46;155585.34;1712571;83;21185;-76
2021/01/02 05:59:41;;;;;;;9.73;4.72;;;;;;;17.19;44.37;155640.70;1704587;82;21309;-77
2021/01/02 06:02:30;;;;;;;8.05;4.42;;;;;;;17.33;44.22;155677.69;1706682;82;22137;-77
2021/01/02 06:05:11;;;;;;;9.75;5.10;;;;;;;17.34;44.12;155681.69;1711097;83;21308;-77
2021/01/02 06:07:50;;;;;;;9.98;5.15;;;;;;;17.50;43.95;155723.84;1718003;82;21336;-76
2021/01/02 06:10:23;;;;;;;9.93;5.05;;;;;;;17.58;43.96;155743.64;1716849;83;21517;-76
2021/01/02 06:12:55;;;;;;;9.78;4.85;;;;;;;17.33;44.01;155677.69;1716876;83;21229;-76
2021/01/02 06:15:29;;;;;;;10.25;5.30;;;;;;;17.20;44.01;155644.69;1718429;83;21343;-77
2021/01/02 06:18:04;;;;;;;7.95;4.78;;;;;;;17.41;43.94;155698.83;1717234;82;21367;-77
2021/01/02 06:20:37;;;;;;;9.98;5.15;;;;;;;17.66;43.75;155766.08;1688784;82;21867;-78
2021/01/02 06:23:10;;;;;;;8.73;4.92;;;;;;;17.82;43.58;155808.31;1713681;83;21310;-77
2021/01/02 06:25:42;;;;;;;9.20;5.50;;;;;;;17.91;43.47;155832.05;1708842;83;21812;-77
2021/01/02 06:28:17;;;;;;;10.50;5.53;;;;;;;17.90;43.50;155829.41;1710717;83;22426;-78
2021/01/02 06:30:49;;;;;;;8.58;4.90;;;;;;;17.94;43.50;155839.92;1730037;82;21268;-71
2021/01/02 06:33:22;;;;;;;10.90;5.70;;;;;;;17.98;43.54;155849.20;1721262;83;21229;-78
2021/01/02 06:35:54;;;;;;;8.38;4.58;;;;;;;17.93;43.59;155835.98;1719481;82;21209;-79
2021/01/02 06:38:28;;;;;;;11.55;5.90;;;;;;;17.78;43.48;155797.73;1729073;82;21202;-77
2021/01/02 06:41:00;;;;;;;11.60;5.47;;;;;;;17.91;43.52;155830.70;1731251;81;21226;-75
2021/01/02 06:43:40;;;;;;;10.30;5.00;;;;;;;18.06;43.37;155870.30;1730699;82;21202;-77
2021/01/02 06:46:13;;;;;;;8.33;5.35;;;;;;;18.08;43.22;155875.58;1731275;82;21210;-77
2021/01/02 06:48:45;;;;;;;10.72;4.55;;;;;;;17.98;43.34;155850.50;1729390;82;21907;-76
2021/01/02 06:51:29;;;;;;;9.48;4.75;;;;;;;18.09;43.23;155879.53;1727404;82;21201;-72
2021/01/02 06:54:03;;;;;;;11.22;5.17;;;;;;;18.18;43.31;155904.61;1718074;82;21244;-74
2021/01/02 06:56:37;;;;;;;10.43;5.10;;;;;;;17.97;43.39;155846.56;1728331;82;21225;-73
2021/01/02 06:59:11;;;;;;;11.08;5.37;;;;;;;17.76;43.62;155791.16;1720488;82;21245;-72
2021/01/02 07:01:45;;;;;;;7.90;4.53;;;;;;;17.73;43.53;155784.53;1648983;82;21924;-76
2021/01/02 07:04:17;;;;;;;10.45;5.45;;;;;;;17.09;44.49;155613.05;1677908;84;21206;-73
2021/01/02 07:06:49;;;;;;;8.80;5.25;;;;;;;17.43;43.89;155705.41;1678174;82;21216;-73
2021/01/02 07:09:23;;;;;;;11.10;4.95;;;;;;;17.48;43.84;155718.56;1711420;82;21813;-73
2021/01/02 07:12:17;;;;;;;9.50;5.20;;;;;;;17.80;43.75;155803.02;1710310;82;21330;-74
2021/01/02 07:14:55;;;;;;;10.35;5.62;;;;;;;17.54;44.09;155734.41;1711293;82;21962;-72
2021/01/02 07:17:28;;;;;;;10.20;4.90;;;;;;;17.38;44.30;155692.19;1678622;82;21262;-71
2021/01/02 07:20:05;;;;;;;11.43;5.47;;;;;;;17.49;44.10;155721.20;1709767;82;21152;-75
2021/01/02 07:22:37;;;;;;;12.15;5.83;;;;;;;17.43;44.19;155705.41;1708786;82;21291;-74
2021/01/02 07:25:13;;;;;;;11.05;6.20;;;;;;;17.29;44.30;155667.17;1710330;82;21398;-72
2021/01/02 07:27:44;;;;;;;10.03;5.03;;;;;;;17.49;44.37;155721.20;1709817;82;21909;-78
2021/01/02 07:30:17;;;;;;;10.23;6.30;;;;;;;17.30;44.46;155669.81;1709789;82;21335;-74
2021/01/02 07:32:50;;;;;;;10.32;5.97;;;;;;;17.37;44.36;155689.55;1688810;84;21184;-78
2021/01/02 07:35:23;;;;;;;12.58;6.45;;;;;;;17.95;43.79;155842.56;1711000;82;21198;-76
2021/01/02 07:37:57;;;;;;;10.63;4.83;;;;;;;17.69;43.97;155774.00;1707161;82;21325;-76
2021/01/02 07:40:32;;;;;;;10.88;5.83;;;;;;;17.88;43.71;155824.11;1710158;82;21332;-75
2021/01/02 07:43:04;;;;;;;10.65;5.08;;;;;;;18.09;43.62;155878.22;1710433;82;21239;-75
2021/01/02 07:45:36;;;;;;;10.18;5.58;;;;;;;18.02;43.78;155861.08;1710880;82;21366;-75
2021/01/02 07:48:09;;;;;;;15.05;6.47;;;;;;;17.93;43.92;155837.33;1709942;82;21306;-75
2021/01/02 07:50:41;;;;;;;11.60;6.33;;;;;;;17.91;43.73;155832.05;1710071;83;21346;-76
2021/01/02 07:53:14;;;;;;;10.98;5.10;;;;;;;18.13;43.48;155890.09;1709215;82;21165;-76
2021/01/02 07:55:46;;;;;;;10.10;5.67;;;;;;;18.26;43.53;155924.47;1710870;82;21203;-76
2021/01/02 07:58:25;;;;;;;10.38;5.97;;;;;;;18.25;43.55;155923.12;1709323;82;21389;-75
2021/01/02 08:01:10;;;;;;;9.80;5.92;;;;;;;18.29;43.32;155932.34;1718921;82;21183;-75
2021/01/02 08:03:42;;;;;;;9.45;5.30;;;;;;;18.20;43.48;155909.91;1732272;82;21365;-76
2021/01/02 08:06:19;;;;;;;11.08;5.37;;;;;;;18.24;43.89;155919.19;1681110;84;21339;-75
2021/01/02 08:09:01;;;;;;;10.25;5.30;;;;;;;18.36;43.47;155952.16;1702654;84;21510;-76
2021/01/02 08:11:34;;;;;;;11.35;6.35;;;;;;;18.92;42.75;156100.06;1744130;82;21257;-74
2021/01/02 08:14:07;;;;;;;11.03;6.03;;;;;;;19.13;42.58;156156.86;1739207;82;21851;-76
2021/01/02 08:16:39;;;;;;;12.07;6.00;;;;;;;19.25;42.22;156188.56;1734272;83;21179;-76
2021/01/02 08:19:11;;;;;;;12.98;5.55;;;;;;;19.42;42.19;156232.16;1734323;82;21320;-76
2021/01/02 08:21:43;;;;;;;10.48;6.30;;;;;;;18.98;42.81;156114.58;1736908;82;21324;-77
2021/01/02 08:24:16;;;;;;;9.35;5.30;;;;;;;18.57;43.01;156007.64;1736900;82;21367;-77
2021/01/02 08:26:49;;;;;;;13.78;6.00;;;;;;;18.81;42.96;156069.66;1703121;82;21287;-76
2021/01/02 08:29:21;;;;;;;11.18;5.12;;;;;;;18.80;43.16;156068.38;1739449;82;21360;-76
2021/01/02 08:31:59;;;;;;;10.50;5.00;;;;;;;19.02;42.93;156125.11;1739269;82;21241;-75
2021/01/02 08:34:33;;;;;;;10.98;5.40;;;;;;;18.94;42.85;156105.30;1739187;82;21336;-76
2021/01/02 08:37:10;;;;;;;11.55;6.22;;;;;;;18.90;42.83;156094.77;1718962;82;21202;-76
2021/01/02 08:39:42;;;;;;;10.05;5.70;;;;;;;18.83;42.89;156076.25;1738302;82;21226;-76
2021/01/02 08:42:15;;;;;;;10.82;5.15;;;;;;;18.72;43.11;156045.91;1736780;82;21237;-76
2021/01/02 08:44:48;;;;;;;11.12;5.72;;;;;;;18.78;43.06;156063.08;1736717;82;21336;-76
2021/01/02 08:47:26;;;;;;;10.68;5.97;;;;;;;19.05;42.89;156135.70;1736816;82;21352;-76
2021/01/02 08:50:08;;;;;;;9.80;5.17;;;;;;;19.04;42.99;156133.05;1736410;82;21182;-76
2021/01/02 08:52:40;;;;;;;11.00;6.47;;;;;;;19.08;42.93;156143.64;1733637;82;21363;-81
2021/01/02 08:55:15;;;;;;;10.93;5.12;;;;;;;19.22;42.98;156179.33;1732126;81;21642;-77
2021/01/02 08:57:53;;;;;;;10.48;5.25;;;;;;;19.35;42.76;156214.97;1725944;81;21360;-75
2021/01/02 09:00:30;;;;;;;9.98;5.25;;;;;;;19.23;42.88;156181.97;1728979;82;21391;-75
2021/01/02 09:03:10;;;;;;;11.70;5.72;;;;;;;19.53;42.58;156261.22;1728758;81;21340;-77
2021/01/02 09:05:56;;;;;;;11.30;5.75;;;;;;;19.54;42.44;156265.22;1730826;81;21257;-80
2021/01/02 09:08:31;;;;;;;11.68;6.37;;;;;;;19.45;42.32;156240.09;1721601;81;21955;-78
2021/01/02 09:11:06;;;;;;;11.03;5.75;;;;;;;19.52;42.23;156259.92;1727644;81;21336;-83
2021/01/02 09:13:47;;;;;;;10.30;4.70;;;;;;;19.69;42.42;156304.81;1727844;81;21368;-82
2021/01/02 09:16:27;;;;;;;9.88;5.25;;;;;;;19.86;42.06;156348.42;1726849;81;21394;-80
2021/01/02 09:19:05;;;;;;;12.07;6.00;;;;;;;20.17;41.88;156433.09;1729072;81;21246;-82
2021/01/02 09:21:53;;;;;;;9.60;5.70;;;;;;;20.36;41.61;156482.03;1724042;81;21174;-75
2021/01/02 09:24:29;;;;;;;9.75;5.47;;;;;;;20.48;41.81;156513.75;1728166;82;21841;-78
2021/01/02 09:27:12;;;;;;;9.03;5.15;;;;;;;20.62;41.48;156550.73;1726837;82;21340;-76
2021/01/02 09:29:48;;;;;;;9.45;4.90;;;;;;;20.54;41.52;156530.89;1728766;82;21299;-77
2021/01/02 09:32:23;;;;;;;10.60;4.92;;;;;;;20.54;41.52;156529.59;1727786;83;21839;-77
2021/01/02 09:34:56;;;;;;;10.65;5.42;;;;;;;20.63;41.24;156554.75;1730203;82;21182;-80
2021/01/02 09:37:29;;;;;;;10.00;5.53;;;;;;;20.52;41.41;156524.30;1728106;82;21376;-82
2021/01/02 09:40:20;;;;;;;10.93;5.78;;;;;;;20.35;41.74;156480.67;1728090;82;21384;-82
2021/01/02 09:42:53;;;;;;;10.68;5.03;;;;;;;21.56;41.20;156800.86;1729462;83;21183;-80
2021/01/02 09:45:27;;;;;;;10.32;4.95;;;;;;;22.23;39.34;156980.94;1728655;83;21385;-79
2021/01/02 09:48:00;;;;;;;11.95;6.03;;;;;;;23.13;39.68;157219.47;1729225;82;22080;-79
2021/01/02 09:50:41;;;;;;;9.88;5.28;;;;;;;23.61;38.65;157346.70;1730849;81;21287;-84
2021/01/02 09:53:08;;;;;;;8.83;4.97;;;;;;;23.69;37.99;157369.25;1728411;81;21354;-81
2021/01/02 09:55:45;;;;;;;10.48;5.83;;;;;;;23.59;38.09;157341.39;1729300;83;21434;-77
2021/01/02 09:58:18;;;;;;;9.40;5.45;;;;;;;23.71;37.76;157374.56;1729900;83;21837;-80
2021/01/02 10:00:50;;;;;;;8.73;4.90;;;;;;;23.48;37.53;157312.23;1730728;83;21397;-80
2021/01/02 10:03:24;;;;;;;8.28;4.67;;;;;;;22.81;38.18;157135.94;1729998;82;21407;-80
2021/01/02 10:05:56;;;;;;;8.50;4.60;;;;;;;21.93;38.98;156901.47;1731342;81;21924;-80
2021/01/02 10:08:29;;;;;;;7.90;4.50;;;;;;;22.37;39.04;157018.08;1730549;83;21743;-79
2021/01/02 10:11:04;;;;;;;11.63;5.85;;;;;;;23.24;38.42;157248.61;1715734;83;21230;-84
2021/01/02 10:13:36;;;;;;;10.38;5.33;;;;;;;24.10;37.56;157478.02;1728760;83;21287;-81
2021/01/02 10:16:09;;;;;;;9.95;4.83;;;;;;;24.17;37.10;157496.61;1729650;82;21280;-82
2021/01/02 10:18:42;;;;;;;9.20;4.90;;;;;;;24.94;36.56;157703.59;1729790;83;21334;-84
2021/01/02 10:21:14;;;;;;;8.75;4.65;;;;;;;25.46;36.12;157841.72;1729335;83;21495;-79
2021/01/02 10:23:47;;;;;;;9.85;4.87;;;;;;;25.36;35.62;157813.81;1729511;82;21363;-79
2021/01/02 10:26:23;;;;;;;8.58;4.40;;;;;;;25.86;35.15;157949.33;1727510;82;21270;-81
2021/01/02 10:28:56;;;;;;;9.18;5.60;;;;;;;26.08;35.20;158007.75;1712734;81;21216;-77
2021/01/02 10:31:29;;;;;;;9.43;4.87;;;;;;;25.74;35.46;157916.05;1711484;82;21309;-77
2021/01/02 10:34:02;;;;;;;8.63;5.17;;;;;;;25.28;35.53;157793.91;1711730;82;21248;-74
2021/01/02 10:36:34;;;;;;;8.75;5.10;;;;;;;25.09;35.67;157742.08;1712834;81;21700;-75
2021/01/02 10:39:07;;;;;;;8.88;4.92;;;;;;;25.09;36.01;157742.08;1711793;82;21333;-79
2021/01/02 10:41:40;;;;;;;9.75;4.47;;;;;;;25.25;36.00;157784.63;1711815;82;21692;-76
2021/01/02 10:44:12;;;;;;;8.35;4.75;;;;;;;24.84;36.06;157675.72;1713034;81;21248;-80
2021/01/02 10:46:48;;;;;;;7.92;4.72;;;;;;;25.14;35.95;157755.42;1710783;82;21744;-77
2021/01/02 10:49:22;;;;;;;8.93;5.33;;;;;;;25.57;35.60;157870.94;1712395;82;21287;-78
2021/01/02 10:51:54;;;;;;;7.95;4.80;;;;;;;25.45;35.69;157839.06;1712086;82;21251;-75
2021/01/02 10:54:32;;;;;;;8.68;4.83;;;;;;;25.27;35.85;157791.25;1710145;82;21193;-73
2021/01/02 10:57:05;;;;;;;7.97;4.10;;;;;;;25.20;35.85;157771.33;1711138;81;21220;-75
2021/01/02 10:59:39;;;;;;;7.70;4.55;;;;;;;25.12;35.93;157750.11;1711348;82;21228;-78
2021/01/02 11:02:11;;;;;;;8.48;5.03;;;;;;;24.86;35.95;157682.39;1689536;84;22304;-79
2021/01/02 11:04:44;;;;;;;7.53;4.65;;;;;;;25.20;36.04;157771.33;1712439;82;21295;-76
2021/01/02 11:07:16;;;;;;;9.03;4.92;;;;;;;24.74;36.15;157649.19;1713059;81;21244;-77
2021/01/02 11:09:49;;;;;;;7.47;4.55;;;;;;;25.47;35.93;157843.03;1711072;82;21835;-73
2021/01/02 11:12:22;;;;;;;7.65;4.30;;;;;;;25.52;35.51;157857.63;1711123;82;21205;-73
2021/01/02 11:14:58;;;;;;;6.90;4.60;;;;;;;25.45;35.60;157837.70;1712440;82;21287;-73
2021/01/02 11:17:30;;;;;;;8.20;4.67;;;;;;;25.03;36.10;157727.48;1711787;81;21221;-73
2021/01/02 11:20:04;;;;;;;5.95;3.90;;;;;;;25.21;35.95;157773.98;1712333;81;21738;-73
2021/01/02 11:22:36;;;;;;;9.45;5.17;;;;;;;25.39;35.95;157823.11;1713385;82;21261;-76
2021/01/02 11:25:11;;;;;;;7.67;4.70;;;;;;;25.52;35.86;157857.63;1709275;82;21296;-76
2021/01/02 11:27:43;;;;;;;9.00;4.47;;;;;;;25.46;35.55;157841.72;1712128;82;21220;-76
2021/01/02 11:30:17;;;;;;;8.70;4.50;;;;;;;25.56;35.68;157868.27;1713670;82;21736;-75
2021/01/02 11:32:51;;;;;;;8.48;4.45;;;;;;;25.34;35.81;157808.50;1715008;83;21227;-74
2021/01/02 11:35:24;;;;;;;6.87;5.03;;;;;;;24.60;36.20;157610.72;1691177;83;21727;-76
2021/01/02 11:37:57;;;;;;;9.43;4.67;;;;;;;24.58;36.58;157606.77;1714535;82;21240;-75
2021/01/02 11:40:29;;;;;;;9.73;5.72;;;;;;;24.51;36.63;157588.16;1713299;83;21236;-75
2021/01/02 11:43:02;;;;;;;6.80;4.70;;;;;;;24.76;36.66;157654.50;1713770;82;21221;-75
2021/01/02 11:45:34;;;;;;;9.18;4.60;;;;;;;24.64;36.62;157621.36;1715244;82;21180;-73
2021/01/02 11:48:07;;;;;;;8.35;4.85;;;;;;;24.72;36.60;157643.88;1713797;82;21232;-74
2021/01/02 11:50:41;;;;;;;9.15;5.28;;;;;;;24.26;37.04;157520.47;1714721;82;21341;-76
2021/01/02 11:53:13;;;;;;;8.53;5.10;;;;;;;24.51;36.93;157586.86;1716067;83;21192;-74
2021/01/02 11:55:51;;;;;;;8.05;5.00;;;;;;;24.27;36.96;157524.44;1713135;83;21317;-77
2021/01/02 11:58:20;;;;;;;10.08;6.20;;;;;;;23.86;37.64;157415.72;1716426;82;21204;-77
2021/01/02 12:00:54;;;;;;;6.83;4.55;;;;;;;23.80;37.59;157399.78;1715088;83;21867;-76
2021/01/02 12:03:27;;;;;;;6.25;4.40;;;;;;;23.83;37.60;157407.75;1713168;84;21894;-74